sensor_id;sensor_type;location;lat;lon;timestamp;temperature;humidity
24207;DHT22;12351;52.284;9.160;2023-04-03T00:00:25;1.50;99.90
24207;DHT22;12351;52.284;9.160;2023-04-03T00:03:11;1.30;1.00
24207;DHT22;12351;52.284;9.160;2023-04-03T00:05:58;1.30;1.00
24207;DHT22;12351;52.284;9.160;2023-04-03T00:08:45;1.40;1.00
24207;DHT22;12351;52.284;9.160;2023-04-03T00:11:31;1.40;1.00
24207;DHT22;12351;52.284;9.160;2023-04-03T00:14:18;1.40;1.00
24207;DHT22;12351;52.284;9.160;2023-04-03T00:17:05;1.40;1.00
24207;DHT22;12351;52.284;9.160;2023-04-03T00:19:51;1.30;1.00
24207;DHT22;12351;52.284;9.160;2023-04-03T00:22:37;1.40;1.00
24207;DHT22;12351;52.284;9.160;2023-04-03T00:25:24;1.20;1.00
24207;DHT22;12351;52.284;9.160;2023-04-03T00:28:11;1.30;1.00
24207;DHT22;12351;52.284;9.160;2023-04-03T00:30:57;1.30;1.00
24207;DHT22;12351;52.284;9.160;2023-04-03T00:33:44;1.20;1.00
24207;DHT22;12351;52.284;9.160;2023-04-03T00:36:30;1.30;1.00
24207;DHT22;12351;52.284;9.160;2023-04-03T00:39:17;1.30;1.00
24207;DHT22;12351;52.284;9.160;2023-04-03T00:42:04;1.20;1.00
24207;DHT22;12351;52.284;9.160;2023-04-03T00:47:32;1.10;1.00
24207;DHT22;12351;52.284;9.160;2023-04-03T00:50:19;1.20;46.60
24207;DHT22;12351;52.284;9.160;2023-04-03T00:53:07;1.20;56.00
24207;DHT22;12351;52.284;9.160;2023-04-03T00:55:56;1.20;53.40
24207;DHT22;12351;52.284;9.160;2023-04-03T01:01:32;1.00;99.90
24207;DHT22;12351;52.284;9.160;2023-04-03T01:07:12;1.00;99.90
24207;DHT22;12351;52.284;9.160;2023-04-03T01:10:00;1.00;99.90
24207;DHT22;12351;52.284;9.160;2023-04-03T01:12:49;0.90;99.90
24207;DHT22;12351;52.284;9.160;2023-04-03T01:15:36;0.90;99.90
24207;DHT22;12351;52.284;9.160;2023-04-03T01:18:24;0.90;99.90
24207;DHT22;12351;52.284;9.160;2023-04-03T01:24:05;0.80;99.90
24207;DHT22;12351;52.284;9.160;2023-04-03T01:26:49;0.80;99.90
24207;DHT22;12351;52.284;9.160;2023-04-03T01:29:35;0.70;99.90
24207;DHT22;12351;52.284;9.160;2023-04-03T01:32:22;0.80;99.90
24207;DHT22;12351;52.284;9.160;2023-04-03T01:35:10;0.70;99.90
24207;DHT22;12351;52.284;9.160;2023-04-03T01:37:56;0.70;99.90
24207;DHT22;12351;52.284;9.160;2023-04-03T01:40:43;0.70;99.90
24207;DHT22;12351;52.284;9.160;2023-04-03T01:43:30;0.60;99.90
24207;DHT22;12351;52.284;9.160;2023-04-03T01:46:18;0.70;99.90
24207;DHT22;12351;52.284;9.160;2023-04-03T01:49:05;0.80;99.90
24207;DHT22;12351;52.284;9.160;2023-04-03T01:51:51;0.80;99.90
24207;DHT22;12351;52.284;9.160;2023-04-03T01:54:38;0.70;99.90
24207;DHT22;12351;52.284;9.160;2023-04-03T01:57:25;0.70;99.90
24207;DHT22;12351;52.284;9.160;2023-04-03T02:00:12;0.70;99.90
24207;DHT22;12351;52.284;9.160;2023-04-03T02:02:59;0.70;99.90
24207;DHT22;12351;52.284;9.160;2023-04-03T02:05:46;0.70;99.90
24207;DHT22;12351;52.284;9.160;2023-04-03T02:08:32;0.70;99.90
24207;DHT22;12351;52.284;9.160;2023-04-03T02:11:19;0.70;99.90
24207;DHT22;12351;52.284;9.160;2023-04-03T02:14:06;0.60;99.90
24207;DHT22;12351;52.284;9.160;2023-04-03T02:16:52;0.50;99.90
24207;DHT22;12351;52.284;9.160;2023-04-03T02:19:39;0.50;99.90
24207;DHT22;12351;52.284;9.160;2023-04-03T02:22:26;0.50;1.00
24207;DHT22;12351;52.284;9.160;2023-04-03T02:25:12;0.40;1.00
24207;DHT22;12351;52.284;9.160;2023-04-03T02:27:59;0.50;1.00
24207;DHT22;12351;52.284;9.160;2023-04-03T02:30:46;0.50;1.00
24207;DHT22;12351;52.284;9.160;2023-04-03T02:33:34;0.50;1.00
24207;DHT22;12351;52.284;9.160;2023-04-03T02:36:22;0.40;1.00
24207;DHT22;12351;52.284;9.160;2023-04-03T02:39:08;0.40;1.00
24207;DHT22;12351;52.284;9.160;2023-04-03T02:41:55;0.30;1.00
24207;DHT22;12351;52.284;9.160;2023-04-03T02:44:42;0.30;1.00
24207;DHT22;12351;52.284;9.160;2023-04-03T02:47:28;0.20;1.00
24207;DHT22;12351;52.284;9.160;2023-04-03T02:50:15;0.20;1.00
24207;DHT22;12351;52.284;9.160;2023-04-03T02:53:01;0.10;1.00
24207;DHT22;12351;52.284;9.160;2023-04-03T02:55:48;0.20;1.00
24207;DHT22;12351;52.284;9.160;2023-04-03T02:58:34;0.10;1.00
24207;DHT22;12351;52.284;9.160;2023-04-03T03:01:21;0.10;1.00
24207;DHT22;12351;52.284;9.160;2023-04-03T03:04:08;0.10;1.00
24207;DHT22;12351;52.284;9.160;2023-04-03T03:06:54;0.20;1.00
24207;DHT22;12351;52.284;9.160;2023-04-03T03:09:41;0.10;1.00
24207;DHT22;12351;52.284;9.160;2023-04-03T03:12:27;0.10;1.00
24207;DHT22;12351;52.284;9.160;2023-04-03T03:15:14;0.00;1.00
24207;DHT22;12351;52.284;9.160;2023-04-03T03:18:01;0.00;1.00
24207;DHT22;12351;52.284;9.160;2023-04-03T03:23:37;0.00;1.00
24207;DHT22;12351;52.284;9.160;2023-04-03T03:26:23;0.00;1.00
24207;DHT22;12351;52.284;9.160;2023-04-03T03:29:10;-0.10;1.00
24207;DHT22;12351;52.284;9.160;2023-04-03T03:31:56;-0.20;1.00
24207;DHT22;12351;52.284;9.160;2023-04-03T03:34:43;-0.20;1.00
24207;DHT22;12351;52.284;9.160;2023-04-03T03:37:29;-0.20;1.00
24207;DHT22;12351;52.284;9.160;2023-04-03T03:40:16;-0.20;1.00
24207;DHT22;12351;52.284;9.160;2023-04-03T03:43:03;-0.30;1.00
24207;DHT22;12351;52.284;9.160;2023-04-03T03:45:51;-0.20;1.00
24207;DHT22;12351;52.284;9.160;2023-04-03T03:48:37;-0.20;1.00
24207;DHT22;12351;52.284;9.160;2023-04-03T03:51:25;-0.30;1.00
24207;DHT22;12351;52.284;9.160;2023-04-03T03:54:11;-0.20;1.00
24207;DHT22;12351;52.284;9.160;2023-04-03T03:56:57;-0.20;1.00
24207;DHT22;12351;52.284;9.160;2023-04-03T03:59:44;-0.30;1.00
24207;DHT22;12351;52.284;9.160;2023-04-03T04:02:31;-0.20;1.00
24207;DHT22;12351;52.284;9.160;2023-04-03T04:05:17;-0.30;1.00
24207;DHT22;12351;52.284;9.160;2023-04-03T04:08:04;-0.30;1.00
24207;DHT22;12351;52.284;9.160;2023-04-03T04:10:51;-0.40;1.00
24207;DHT22;12351;52.284;9.160;2023-04-03T04:13:37;-0.40;1.00
24207;DHT22;12351;52.284;9.160;2023-04-03T04:16:24;-0.50;1.00
24207;DHT22;12351;52.284;9.160;2023-04-03T04:19:10;-0.60;1.00
24207;DHT22;12351;52.284;9.160;2023-04-03T04:21:57;-0.60;1.00
24207;DHT22;12351;52.284;9.160;2023-04-03T04:24:43;-0.70;1.00
24207;DHT22;12351;52.284;9.160;2023-04-03T04:27:29;-0.70;1.00
24207;DHT22;12351;52.284;9.160;2023-04-03T04:30:16;-0.70;1.00
24207;DHT22;12351;52.284;9.160;2023-04-03T04:33:03;-0.70;1.00
24207;DHT22;12351;52.284;9.160;2023-04-03T04:35:50;-0.60;1.00
24207;DHT22;12351;52.284;9.160;2023-04-03T04:38:37;-0.60;1.00
24207;DHT22;12351;52.284;9.160;2023-04-03T04:41:24;-0.60;1.00
24207;DHT22;12351;52.284;9.160;2023-04-03T04:44:11;-0.70;1.00
24207;DHT22;12351;52.284;9.160;2023-04-03T04:46:58;-0.70;1.00
24207;DHT22;12351;52.284;9.160;2023-04-03T04:49:44;-0.70;1.00
24207;DHT22;12351;52.284;9.160;2023-04-03T04:52:33;-0.70;1.00
24207;DHT22;12351;52.284;9.160;2023-04-03T04:55:20;-0.80;1.00
24207;DHT22;12351;52.284;9.160;2023-04-03T04:58:06;-0.80;1.00
24207;DHT22;12351;52.284;9.160;2023-04-03T05:03:41;-0.80;1.00
24207;DHT22;12351;52.284;9.160;2023-04-03T05:06:28;-0.80;1.00
24207;DHT22;12351;52.284;9.160;2023-04-03T05:09:16;-0.80;1.00
24207;DHT22;12351;52.284;9.160;2023-04-03T05:12:03;-0.90;1.00
24207;DHT22;12351;52.284;9.160;2023-04-03T05:14:50;-0.80;1.00
24207;DHT22;12351;52.284;9.160;2023-04-03T05:17:36;-0.80;1.00
24207;DHT22;12351;52.284;9.160;2023-04-03T05:20:23;-0.90;1.00
24207;DHT22;12351;52.284;9.160;2023-04-03T05:23:10;-0.90;1.00
24207;DHT22;12351;52.284;9.160;2023-04-03T05:25:57;-0.90;1.00
24207;DHT22;12351;52.284;9.160;2023-04-03T05:28:44;-1.00;1.00
24207;DHT22;12351;52.284;9.160;2023-04-03T05:31:31;-0.90;1.00
24207;DHT22;12351;52.284;9.160;2023-04-03T05:34:17;-1.00;1.00
24207;DHT22;12351;52.284;9.160;2023-04-03T05:37:04;-1.00;1.00
24207;DHT22;12351;52.284;9.160;2023-04-03T05:39:50;-1.00;1.00
24207;DHT22;12351;52.284;9.160;2023-04-03T05:42:37;-0.90;1.00
24207;DHT22;12351;52.284;9.160;2023-04-03T05:45:23;-1.00;1.00
24207;DHT22;12351;52.284;9.160;2023-04-03T05:48:09;-0.90;3.10
24207;DHT22;12351;52.284;9.160;2023-04-03T05:50:55;-0.80;10.90
24207;DHT22;12351;52.284;9.160;2023-04-03T05:53:44;-0.80;9.70
24207;DHT22;12351;52.284;9.160;2023-04-03T05:56:31;-0.60;10.10
24207;DHT22;12351;52.284;9.160;2023-04-03T05:59:17;-0.50;3.20
24207;DHT22;12351;52.284;9.160;2023-04-03T06:02:04;-0.40;1.00
24207;DHT22;12351;52.284;9.160;2023-04-03T06:04:50;-0.30;1.00
24207;DHT22;12351;52.284;9.160;2023-04-03T06:07:37;-0.20;1.00
24207;DHT22;12351;52.284;9.160;2023-04-03T06:10:24;-0.10;1.00
24207;DHT22;12351;52.284;9.160;2023-04-03T06:13:10;-0.10;1.00
24207;DHT22;12351;52.284;9.160;2023-04-03T06:15:57;-0.10;1.00
24207;DHT22;12351;52.284;9.160;2023-04-03T06:18:44;0.00;1.00
24207;DHT22;12351;52.284;9.160;2023-04-03T06:21:30;0.20;1.00
24207;DHT22;12351;52.284;9.160;2023-04-03T06:24:18;0.10;1.00
24207;DHT22;12351;52.284;9.160;2023-04-03T06:27:06;0.00;1.00
24207;DHT22;12351;52.284;9.160;2023-04-03T06:29:52;0.10;1.00
24207;DHT22;12351;52.284;9.160;2023-04-03T06:32:39;0.20;1.00
24207;DHT22;12351;52.284;9.160;2023-04-03T06:35:25;0.20;1.00
24207;DHT22;12351;52.284;9.160;2023-04-03T06:38:13;0.10;1.00
24207;DHT22;12351;52.284;9.160;2023-04-03T06:41:00;0.30;1.00
24207;DHT22;12351;52.284;9.160;2023-04-03T06:43:47;0.40;1.00
24207;DHT22;12351;52.284;9.160;2023-04-03T06:46:34;0.20;1.00
24207;DHT22;12351;52.284;9.160;2023-04-03T06:49:20;0.40;1.00
24207;DHT22;12351;52.284;9.160;2023-04-03T06:52:07;0.40;1.00
24207;DHT22;12351;52.284;9.160;2023-04-03T06:54:53;0.50;1.00
24207;DHT22;12351;52.284;9.160;2023-04-03T06:57:41;0.50;1.00
24207;DHT22;12351;52.284;9.160;2023-04-03T07:00:28;0.70;1.00
24207;DHT22;12351;52.284;9.160;2023-04-03T07:03:15;0.80;1.00
24207;DHT22;12351;52.284;9.160;2023-04-03T07:06:02;0.80;1.00
24207;DHT22;12351;52.284;9.160;2023-04-03T07:08:48;0.80;1.00
24207;DHT22;12351;52.284;9.160;2023-04-03T07:11:35;1.00;1.00
24207;DHT22;12351;52.284;9.160;2023-04-03T07:14:22;0.90;1.00
24207;DHT22;12351;52.284;9.160;2023-04-03T07:17:08;0.90;1.00
24207;DHT22;12351;52.284;9.160;2023-04-03T07:19:54;1.10;1.00
24207;DHT22;12351;52.284;9.160;2023-04-03T07:22:41;1.00;1.00
24207;DHT22;12351;52.284;9.160;2023-04-03T07:25:27;1.20;1.00
24207;DHT22;12351;52.284;9.160;2023-04-03T07:28:16;1.40;1.00
24207;DHT22;12351;52.284;9.160;2023-04-03T07:31:05;1.60;1.00
24207;DHT22;12351;52.284;9.160;2023-04-03T07:33:53;1.70;1.00
24207;DHT22;12351;52.284;9.160;2023-04-03T07:36:40;1.60;1.00
24207;DHT22;12351;52.284;9.160;2023-04-03T07:39:26;1.90;99.90
24207;DHT22;12351;52.284;9.160;2023-04-03T07:42:13;1.90;99.90
24207;DHT22;12351;52.284;9.160;2023-04-03T07:45:00;2.10;73.20
24207;DHT22;12351;52.284;9.160;2023-04-03T07:47:47;2.20;1.00
24207;DHT22;12351;52.284;9.160;2023-04-03T07:50:33;2.40;99.90
24207;DHT22;12351;52.284;9.160;2023-04-03T07:53:24;2.40;1.00
24207;DHT22;12351;52.284;9.160;2023-04-03T07:59:01;2.50;1.00
24207;DHT22;12351;52.284;9.160;2023-04-03T08:01:48;2.50;99.90
24207;DHT22;12351;52.284;9.160;2023-04-03T08:04:35;2.70;99.90
24207;DHT22;12351;52.284;9.160;2023-04-03T08:07:21;2.90;51.50
24207;DHT22;12351;52.284;9.160;2023-04-03T08:10:08;2.80;1.00
24207;DHT22;12351;52.284;9.160;2023-04-03T08:12:55;2.70;1.00
24207;DHT22;12351;52.284;9.160;2023-04-03T08:15:41;3.00;1.00
24207;DHT22;12351;52.284;9.160;2023-04-03T08:18:28;3.20;1.00
24207;DHT22;12351;52.284;9.160;2023-04-03T08:21:15;3.20;1.00
24207;DHT22;12351;52.284;9.160;2023-04-03T08:24:02;3.30;1.00
24207;DHT22;12351;52.284;9.160;2023-04-03T08:26:49;3.10;99.90
24207;DHT22;12351;52.284;9.160;2023-04-03T08:29:36;3.10;1.00
24207;DHT22;12351;52.284;9.160;2023-04-03T08:32:23;2.90;1.00
24207;DHT22;12351;52.284;9.160;2023-04-03T08:35:09;3.10;99.90
24207;DHT22;12351;52.284;9.160;2023-04-03T08:37:56;3.10;1.00
24207;DHT22;12351;52.284;9.160;2023-04-03T08:40:44;3.00;1.00
24207;DHT22;12351;52.284;9.160;2023-04-03T08:46:21;3.20;99.90
24207;DHT22;12351;52.284;9.160;2023-04-03T08:49:12;3.30;1.00
24207;DHT22;12351;52.284;9.160;2023-04-03T08:52:01;3.50;99.90
24207;DHT22;12351;52.284;9.160;2023-04-03T08:57:29;3.60;1.00
24207;DHT22;12351;52.284;9.160;2023-04-03T09:00:19;3.60;1.00
24207;DHT22;12351;52.284;9.160;2023-04-03T09:03:10;3.70;1.00
24207;DHT22;12351;52.284;9.160;2023-04-03T09:08:49;3.60;99.90
24207;DHT22;12351;52.284;9.160;2023-04-03T09:14:26;3.80;1.00
24207;DHT22;12351;52.284;9.160;2023-04-03T09:22:52;4.10;1.00
24207;DHT22;12351;52.284;9.160;2023-04-03T09:25:40;4.20;1.00
24207;DHT22;12351;52.284;9.160;2023-04-03T09:28:27;4.50;1.00
24207;DHT22;12351;52.284;9.160;2023-04-03T09:34:06;4.60;1.00
24207;DHT22;12351;52.284;9.160;2023-04-03T09:36:55;4.60;1.00
24207;DHT22;12351;52.284;9.160;2023-04-03T09:42:32;4.50;99.90
24207;DHT22;12351;52.284;9.160;2023-04-03T09:45:22;4.60;99.90
24207;DHT22;12351;52.284;9.160;2023-04-03T09:51:00;5.00;99.90
24207;DHT22;12351;52.284;9.160;2023-04-03T09:53:48;4.90;99.90
24207;DHT22;12351;52.284;9.160;2023-04-03T09:56:36;4.80;99.90
24207;DHT22;12351;52.284;9.160;2023-04-03T09:59:24;4.80;99.90
24207;DHT22;12351;52.284;9.160;2023-04-03T10:02:20;5.20;99.90
24207;DHT22;12351;52.284;9.160;2023-04-03T10:05:05;5.10;99.90
24207;DHT22;12351;52.284;9.160;2023-04-03T10:07:52;5.10;51.30
24207;DHT22;12351;52.284;9.160;2023-04-03T10:10:43;5.00;17.30
24207;DHT22;12351;52.284;9.160;2023-04-03T10:13:31;4.90;1.00
24207;DHT22;12351;52.284;9.160;2023-04-03T10:16:21;4.90;1.00
24207;DHT22;12351;52.284;9.160;2023-04-03T10:19:13;5.00;1.00
24207;DHT22;12351;52.284;9.160;2023-04-03T10:22:03;5.20;1.00
24207;DHT22;12351;52.284;9.160;2023-04-03T10:55:48;6.50;1.00
24207;DHT22;12351;52.284;9.160;2023-04-03T10:58:39;6.60;1.00
24207;DHT22;12351;52.284;9.160;2023-04-03T11:01:29;6.80;1.00
24207;DHT22;12351;52.284;9.160;2023-04-03T11:04:18;7.00;1.00
24207;DHT22;12351;52.284;9.160;2023-04-03T11:10:00;7.00;1.00
24207;DHT22;12351;52.284;9.160;2023-04-03T11:12:50;7.30;1.00
24207;DHT22;12351;52.284;9.160;2023-04-03T11:15:38;6.90;1.00
24207;DHT22;12351;52.284;9.160;2023-04-03T11:18:29;6.60;1.00
24207;DHT22;12351;52.284;9.160;2023-04-03T11:26:58;7.20;1.00
24207;DHT22;12351;52.284;9.160;2023-04-03T11:29:47;7.50;1.00
24207;DHT22;12351;52.284;9.160;2023-04-03T11:35:26;6.80;1.00
24207;DHT22;12351;52.284;9.160;2023-04-03T11:38:17;7.30;1.00
24207;DHT22;12351;52.284;9.160;2023-04-03T11:41:05;7.60;1.00
24207;DHT22;12351;52.284;9.160;2023-04-03T11:43:55;7.70;1.00
24207;DHT22;12351;52.284;9.160;2023-04-03T11:58:11;6.80;1.00
24207;DHT22;12351;52.284;9.160;2023-04-03T12:15:18;7.40;1.00
24207;DHT22;12351;52.284;9.160;2023-04-03T12:17:49;7.70;1.00
24207;DHT22;12351;52.284;9.160;2023-04-03T12:26:22;8.10;1.00
24207;DHT22;12351;52.284;9.160;2023-04-03T12:46:15;7.80;1.00
24207;DHT22;12351;52.284;9.160;2023-04-03T12:49:10;7.40;1.00
24207;DHT22;12351;52.284;9.160;2023-04-03T12:51:53;7.40;1.00
24207;DHT22;12351;52.284;9.160;2023-04-03T12:54:42;7.50;1.00
24207;DHT22;12351;52.284;9.160;2023-04-03T12:57:31;7.80;1.00
24207;DHT22;12351;52.284;9.160;2023-04-03T13:00:20;7.30;1.00
24207;DHT22;12351;52.284;9.160;2023-04-03T13:06:00;6.90;1.00
24207;DHT22;12351;52.284;9.160;2023-04-03T13:08:52;6.80;1.00
24207;DHT22;12351;52.284;9.160;2023-04-03T13:11:41;7.20;1.00
24207;DHT22;12351;52.284;9.160;2023-04-03T13:14:29;7.60;1.00
24207;DHT22;12351;52.284;9.160;2023-04-03T13:17:18;7.60;1.00
24207;DHT22;12351;52.284;9.160;2023-04-03T13:25:46;8.00;1.00
24207;DHT22;12351;52.284;9.160;2023-04-03T13:28:34;8.20;1.00
24207;DHT22;12351;52.284;9.160;2023-04-03T13:31:26;7.70;1.00
24207;DHT22;12351;52.284;9.160;2023-04-03T13:34:15;7.70;1.00
24207;DHT22;12351;52.284;9.160;2023-04-03T13:37:02;7.10;1.00
24207;DHT22;12351;52.284;9.160;2023-04-03T13:42:41;7.10;1.00
24207;DHT22;12351;52.284;9.160;2023-04-03T13:45:29;7.30;1.00
24207;DHT22;12351;52.284;9.160;2023-04-03T13:48:19;7.40;1.00
24207;DHT22;12351;52.284;9.160;2023-04-03T13:54:09;7.40;1.00
24207;DHT22;12351;52.284;9.160;2023-04-03T13:56:53;7.40;1.00
24207;DHT22;12351;52.284;9.160;2023-04-03T13:59:39;7.50;1.00
24207;DHT22;12351;52.284;9.160;2023-04-03T14:02:30;7.80;1.00
24207;DHT22;12351;52.284;9.160;2023-04-03T14:05:16;7.80;1.00
24207;DHT22;12351;52.284;9.160;2023-04-03T14:08:05;7.70;1.00
24207;DHT22;12351;52.284;9.160;2023-04-03T14:10:53;7.40;1.00
24207;DHT22;12351;52.284;9.160;2023-04-03T14:13:41;6.90;1.00
24207;DHT22;12351;52.284;9.160;2023-04-03T14:16:30;7.10;1.00
24207;DHT22;12351;52.284;9.160;2023-04-03T14:22:14;8.00;1.00
24207;DHT22;12351;52.284;9.160;2023-04-03T14:24:58;8.10;1.00
24207;DHT22;12351;52.284;9.160;2023-04-03T14:27:48;8.10;1.00
24207;DHT22;12351;52.284;9.160;2023-04-03T14:30:35;7.70;1.00
24207;DHT22;12351;52.284;9.160;2023-04-03T14:33:23;7.80;1.00
24207;DHT22;12351;52.284;9.160;2023-04-03T14:36:14;7.50;1.00
24207;DHT22;12351;52.284;9.160;2023-04-03T14:39:03;7.10;1.00
24207;DHT22;12351;52.284;9.160;2023-04-03T14:41:50;6.90;1.00
24207;DHT22;12351;52.284;9.160;2023-04-03T14:44:37;7.10;1.00
24207;DHT22;12351;52.284;9.160;2023-04-03T14:47:26;7.50;1.00
24207;DHT22;12351;52.284;9.160;2023-04-03T14:50:17;7.90;1.00
24207;DHT22;12351;52.284;9.160;2023-04-03T14:53:06;8.10;1.00
24207;DHT22;12351;52.284;9.160;2023-04-03T14:55:53;8.10;1.00
24207;DHT22;12351;52.284;9.160;2023-04-03T14:58:40;8.10;1.00
24207;DHT22;12351;52.284;9.160;2023-04-03T15:01:28;8.40;1.00
24207;DHT22;12351;52.284;9.160;2023-04-03T15:04:17;8.20;1.00
24207;DHT22;12351;52.284;9.160;2023-04-03T15:07:04;7.60;1.00
24207;DHT22;12351;52.284;9.160;2023-04-03T15:09:51;7.70;1.00
24207;DHT22;12351;52.284;9.160;2023-04-03T15:12:39;7.90;1.00
24207;DHT22;12351;52.284;9.160;2023-04-03T15:15:28;7.70;1.00
24207;DHT22;12351;52.284;9.160;2023-04-03T15:18:19;7.50;1.00
24207;DHT22;12351;52.284;9.160;2023-04-03T15:21:06;7.80;1.00
24207;DHT22;12351;52.284;9.160;2023-04-03T15:23:53;8.20;1.00
24207;DHT22;12351;52.284;9.160;2023-04-03T15:26:41;8.20;1.00
24207;DHT22;12351;52.284;9.160;2023-04-03T15:29:28;7.80;1.00
24207;DHT22;12351;52.284;9.160;2023-04-03T15:32:18;7.30;1.00
24207;DHT22;12351;52.284;9.160;2023-04-03T15:35:10;7.30;1.00
24207;DHT22;12351;52.284;9.160;2023-04-03T15:38:00;7.00;1.00
24207;DHT22;12351;52.284;9.160;2023-04-03T15:40:50;7.20;1.00
24207;DHT22;12351;52.284;9.160;2023-04-03T15:43:38;7.50;1.00
24207;DHT22;12351;52.284;9.160;2023-04-03T15:46:25;7.40;1.00
24207;DHT22;12351;52.284;9.160;2023-04-03T15:49:16;7.50;1.00
24207;DHT22;12351;52.284;9.160;2023-04-03T15:52:06;7.70;1.00
24207;DHT22;12351;52.284;9.160;2023-04-03T15:54:54;7.90;1.00
24207;DHT22;12351;52.284;9.160;2023-04-03T15:57:43;7.90;1.00
24207;DHT22;12351;52.284;9.160;2023-04-03T16:00:34;8.10;1.00
24207;DHT22;12351;52.284;9.160;2023-04-03T16:03:26;7.80;1.00
24207;DHT22;12351;52.284;9.160;2023-04-03T16:06:18;7.70;1.00
24207;DHT22;12351;52.284;9.160;2023-04-03T16:09:05;7.80;1.00
24207;DHT22;12351;52.284;9.160;2023-04-03T16:11:56;7.50;1.00
24207;DHT22;12351;52.284;9.160;2023-04-03T16:14:44;7.50;1.00
24207;DHT22;12351;52.284;9.160;2023-04-03T16:17:34;7.20;1.00
24207;DHT22;12351;52.284;9.160;2023-04-03T16:20:22;7.40;1.00
24207;DHT22;12351;52.284;9.160;2023-04-03T16:23:14;7.80;1.00
24207;DHT22;12351;52.284;9.160;2023-04-03T16:26:00;8.10;1.00
24207;DHT22;12351;52.284;9.160;2023-04-03T16:28:51;7.80;1.00
24207;DHT22;12351;52.284;9.160;2023-04-03T16:31:40;7.90;1.00
24207;DHT22;12351;52.284;9.160;2023-04-03T16:34:28;7.70;1.00
24207;DHT22;12351;52.284;9.160;2023-04-03T16:37:20;7.50;1.00
24207;DHT22;12351;52.284;9.160;2023-04-03T16:40:08;7.60;1.00
24207;DHT22;12351;52.284;9.160;2023-04-03T16:42:57;7.40;1.00
24207;DHT22;12351;52.284;9.160;2023-04-03T16:45:45;7.70;1.00
24207;DHT22;12351;52.284;9.160;2023-04-03T16:48:34;7.60;1.00
24207;DHT22;12351;52.284;9.160;2023-04-03T16:51:24;7.40;1.00
24207;DHT22;12351;52.284;9.160;2023-04-03T16:54:14;7.10;1.00
24207;DHT22;12351;52.284;9.160;2023-04-03T16:57:01;7.20;1.00
24207;DHT22;12351;52.284;9.160;2023-04-03T16:59:50;6.90;1.00
24207;DHT22;12351;52.284;9.160;2023-04-03T17:02:39;6.80;1.00
24207;DHT22;12351;52.284;9.160;2023-04-03T17:05:29;6.80;1.00
24207;DHT22;12351;52.284;9.160;2023-04-03T17:08:17;7.00;1.00
24207;DHT22;12351;52.284;9.160;2023-04-03T17:11:06;7.00;1.00
24207;DHT22;12351;52.284;9.160;2023-04-03T17:13:56;6.80;1.00
24207;DHT22;12351;52.284;9.160;2023-04-03T17:16:43;6.60;1.00
24207;DHT22;12351;52.284;9.160;2023-04-03T17:19:32;6.60;1.00
24207;DHT22;12351;52.284;9.160;2023-04-03T17:22:20;6.40;1.00
24207;DHT22;12351;52.284;9.160;2023-04-03T17:25:11;6.70;1.00
24207;DHT22;12351;52.284;9.160;2023-04-03T17:28:00;6.40;1.00
24207;DHT22;12351;52.284;9.160;2023-04-03T17:30:48;6.60;1.00
24207;DHT22;12351;52.284;9.160;2023-04-03T17:33:37;6.30;1.00
24207;DHT22;12351;52.284;9.160;2023-04-03T19:56:51;3.00;1.00
24207;DHT22;12351;52.284;9.160;2023-04-03T19:59:42;3.10;1.00
24207;DHT22;12351;52.284;9.160;2023-04-03T20:02:32;3.00;1.00
24207;DHT22;12351;52.284;9.160;2023-04-03T20:05:21;2.90;1.00
24207;DHT22;12351;52.284;9.160;2023-04-03T20:08:11;2.70;1.00
24207;DHT22;12351;52.284;9.160;2023-04-03T20:10:59;2.60;1.00
24207;DHT22;12351;52.284;9.160;2023-04-03T20:13:50;2.50;1.00
24207;DHT22;12351;52.284;9.160;2023-04-03T20:16:39;2.40;60.90
24207;DHT22;12351;52.284;9.160;2023-04-03T20:19:29;2.30;99.90
24207;DHT22;12351;52.284;9.160;2023-04-03T20:22:19;2.30;99.90
24207;DHT22;12351;52.284;9.160;2023-04-03T20:25:09;2.30;99.90
24207;DHT22;12351;52.284;9.160;2023-04-03T20:27:57;2.20;99.90
24207;DHT22;12351;52.284;9.160;2023-04-03T20:30:46;2.20;99.90
24207;DHT22;12351;52.284;9.160;2023-04-03T20:33:37;2.20;1.00
24207;DHT22;12351;52.284;9.160;2023-04-03T20:36:29;2.10;1.00
24207;DHT22;12351;52.284;9.160;2023-04-03T20:39:19;2.00;1.00
24207;DHT22;12351;52.284;9.160;2023-04-03T20:42:10;2.00;1.00
24207;DHT22;12351;52.284;9.160;2023-04-03T20:45:00;2.00;1.00
24207;DHT22;12351;52.284;9.160;2023-04-03T20:47:48;2.00;1.00
24207;DHT22;12351;52.284;9.160;2023-04-03T20:50:39;2.10;1.00
24207;DHT22;12351;52.284;9.160;2023-04-03T20:53:30;2.20;1.00
24207;DHT22;12351;52.284;9.160;2023-04-03T20:56:20;2.20;1.00
24207;DHT22;12351;52.284;9.160;2023-04-03T20:59:11;2.20;99.90
24207;DHT22;12351;52.284;9.160;2023-04-03T21:02:01;2.20;1.00
24207;DHT22;12351;52.284;9.160;2023-04-03T21:04:53;2.10;1.00
24207;DHT22;12351;52.284;9.160;2023-04-03T21:19:20;2.10;99.90
24207;DHT22;12351;52.284;9.160;2023-04-03T21:22:11;2.10;99.90
24207;DHT22;12351;52.284;9.160;2023-04-03T21:24:58;2.10;99.90
24207;DHT22;12351;52.284;9.160;2023-04-03T21:27:48;2.10;99.90
24207;DHT22;12351;52.284;9.160;2023-04-03T21:30:39;2.10;99.90
24207;DHT22;12351;52.284;9.160;2023-04-03T21:33:28;2.20;97.60
24207;DHT22;12351;52.284;9.160;2023-04-03T21:36:19;2.10;40.00
24207;DHT22;12351;52.284;9.160;2023-04-03T21:39:11;2.00;45.70
24207;DHT22;12351;52.284;9.160;2023-04-03T21:42:02;2.00;50.30
24207;DHT22;12351;52.284;9.160;2023-04-03T21:44:52;2.00;49.20
24207;DHT22;12351;52.284;9.160;2023-04-03T21:47:44;2.00;49.50
24207;DHT22;12351;52.284;9.160;2023-04-03T21:50:32;1.90;52.00
24207;DHT22;12351;52.284;9.160;2023-04-03T21:53:23;1.90;48.50
24207;DHT22;12351;52.284;9.160;2023-04-03T21:56:15;1.90;58.10
24207;DHT22;12351;52.284;9.160;2023-04-03T21:59:07;1.90;55.30
24207;DHT22;12351;52.284;9.160;2023-04-03T22:01:57;1.80;45.40
24207;DHT22;12351;52.284;9.160;2023-04-03T22:04:51;1.80;45.10
24207;DHT22;12351;52.284;9.160;2023-04-03T22:07:42;1.80;9.60
24207;DHT22;12351;52.284;9.160;2023-04-03T22:10:30;1.70;23.00
24207;DHT22;12351;52.284;9.160;2023-04-03T22:13:20;1.70;24.80
24207;DHT22;12351;52.284;9.160;2023-04-03T22:16:10;1.60;11.30
24207;DHT22;12351;52.284;9.160;2023-04-03T22:19:01;1.60;1.00
24207;DHT22;12351;52.284;9.160;2023-04-03T22:21:52;1.60;1.00
24207;DHT22;12351;52.284;9.160;2023-04-03T22:24:42;1.60;1.00
24207;DHT22;12351;52.284;9.160;2023-04-03T22:27:34;1.60;1.00
24207;DHT22;12351;52.284;9.160;2023-04-03T22:30:24;1.50;1.00
24207;DHT22;12351;52.284;9.160;2023-04-03T22:33:11;1.50;1.00
24207;DHT22;12351;52.284;9.160;2023-04-03T22:35:59;1.50;1.00
24207;DHT22;12351;52.284;9.160;2023-04-03T22:38:47;1.50;1.00
24207;DHT22;12351;52.284;9.160;2023-04-03T22:41:35;1.50;1.00
24207;DHT22;12351;52.284;9.160;2023-04-03T22:44:28;1.50;1.00
24207;DHT22;12351;52.284;9.160;2023-04-03T22:47:16;1.50;1.00
24207;DHT22;12351;52.284;9.160;2023-04-03T22:50:06;1.50;1.00
24207;DHT22;12351;52.284;9.160;2023-04-03T22:52:52;1.40;1.00
24207;DHT22;12351;52.284;9.160;2023-04-03T22:55:40;1.40;1.00
24207;DHT22;12351;52.284;9.160;2023-04-03T22:58:27;1.40;1.00
24207;DHT22;12351;52.284;9.160;2023-04-03T23:01:15;1.40;1.00
24207;DHT22;12351;52.284;9.160;2023-04-03T23:04:05;1.40;1.00
24207;DHT22;12351;52.284;9.160;2023-04-03T23:06:56;1.30;1.00
24207;DHT22;12351;52.284;9.160;2023-04-03T23:09:43;1.20;1.00
24207;DHT22;12351;52.284;9.160;2023-04-03T23:15:21;1.20;1.00